sensor_id;sensor_type;location;lat;lon;timestamp;P1;durP1;ratioP1;P2;durP2;ratioP2
18820;SDS011;9539;59.332;18.034;2024-02-16T00:00:04;380.85;;;28.38;;
18820;SDS011;9539;59.332;18.034;2024-02-16T00:02:25;413.27;;;34.10;;
18820;SDS011;9539;59.332;18.034;2024-02-16T00:04:48;316.83;;;27.83;;
18820;SDS011;9539;59.332;18.034;2024-02-16T00:07:10;435.52;;;36.47;;
18820;SDS011;9539;59.332;18.034;2024-02-16T00:09:31;855.35;;;49.65;;
18820;SDS011;9539;59.332;18.034;2024-02-16T00:11:53;402.55;;;28.00;;
18820;SDS011;9539;59.332;18.034;2024-02-16T00:14:15;419.05;;;33.40;;
18820;SDS011;9539;59.332;18.034;2024-02-16T00:16:37;406.58;;;31.83;;
18820;SDS011;9539;59.332;18.034;2024-02-16T00:18:58;367.63;;;32.72;;
18820;SDS011;9539;59.332;18.034;2024-02-16T00:21:21;343.63;;;31.92;;
18820;SDS011;9539;59.332;18.034;2024-02-16T00:23:43;450.95;;;34.50;;
18820;SDS011;9539;59.332;18.034;2024-02-16T00:26:04;717.65;;;42.55;;
18820;SDS011;9539;59.332;18.034;2024-02-16T00:28:27;469.08;;;35.40;;
18820;SDS011;9539;59.332;18.034;2024-02-16T00:30:49;697.10;;;40.35;;
18820;SDS011;9539;59.332;18.034;2024-02-16T00:33:09;378.70;;;27.98;;
18820;SDS011;9539;59.332;18.034;2024-02-16T00:35:31;434.55;;;34.85;;
18820;SDS011;9539;59.332;18.034;2024-02-16T00:37:54;514.10;;;37.40;;
18820;SDS011;9539;59.332;18.034;2024-02-16T00:40:16;726.92;;;43.63;;
18820;SDS011;9539;59.332;18.034;2024-02-16T00:42:38;267.42;;;22.27;;
18820;SDS011;9539;59.332;18.034;2024-02-16T00:45:00;323.10;;;28.88;;
18820;SDS011;9539;59.332;18.034;2024-02-16T00:47:22;370.30;;;29.98;;
18820;SDS011;9539;59.332;18.034;2024-02-16T00:49:44;108.78;;;13.27;;
18820;SDS011;9539;59.332;18.034;2024-02-16T00:52:06;571.35;;;34.72;;
18820;SDS011;9539;59.332;18.034;2024-02-16T00:54:29;352.48;;;28.33;;
18820;SDS011;9539;59.332;18.034;2024-02-16T00:56:50;309.45;;;24.88;;
18820;SDS011;9539;59.332;18.034;2024-02-16T00:59:12;313.52;;;28.52;;
18820;SDS011;9539;59.332;18.034;2024-02-16T01:01:33;496.65;;;32.17;;
18820;SDS011;9539;59.332;18.034;2024-02-16T01:03:55;313.85;;;27.90;;
18820;SDS011;9539;59.332;18.034;2024-02-16T01:06:17;357.60;;;33.38;;
18820;SDS011;9539;59.332;18.034;2024-02-16T01:08:39;463.20;;;34.63;;
18820;SDS011;9539;59.332;18.034;2024-02-16T01:11:02;547.50;;;37.65;;
18820;SDS011;9539;59.332;18.034;2024-02-16T01:13:24;448.45;;;33.58;;
18820;SDS011;9539;59.332;18.034;2024-02-16T01:15:46;280.35;;;23.98;;
18820;SDS011;9539;59.332;18.034;2024-02-16T01:18:08;587.88;;;36.08;;
18820;SDS011;9539;59.332;18.034;2024-02-16T01:20:30;567.78;;;33.90;;
18820;SDS011;9539;59.332;18.034;2024-02-16T01:22:51;1192.30;;;59.90;;
18820;SDS011;9539;59.332;18.034;2024-02-16T01:25:13;422.38;;;27.95;;
18820;SDS011;9539;59.332;18.034;2024-02-16T01:27:37;168.07;;;18.70;;
18820;SDS011;9539;59.332;18.034;2024-02-16T01:30:01;584.08;;;37.22;;
18820;SDS011;9539;59.332;18.034;2024-02-16T01:32:23;455.90;;;29.60;;
18820;SDS011;9539;59.332;18.034;2024-02-16T01:34:44;254.45;;;21.55;;
18820;SDS011;9539;59.332;18.034;2024-02-16T01:37:07;381.58;;;30.77;;
18820;SDS011;9539;59.332;18.034;2024-02-16T01:39:28;395.33;;;30.90;;
18820;SDS011;9539;59.332;18.034;2024-02-16T01:41:50;783.60;;;47.03;;
18820;SDS011;9539;59.332;18.034;2024-02-16T01:44:13;526.90;;;39.80;;
18820;SDS011;9539;59.332;18.034;2024-02-16T01:46:37;285.48;;;27.48;;
18820;SDS011;9539;59.332;18.034;2024-02-16T01:48:58;334.38;;;28.17;;
18820;SDS011;9539;59.332;18.034;2024-02-16T01:51:20;279.10;;;26.05;;
18820;SDS011;9539;59.332;18.034;2024-02-16T01:53:44;189.40;;;23.98;;
18820;SDS011;9539;59.332;18.034;2024-02-16T01:56:06;413.92;;;35.53;;
18820;SDS011;9539;59.332;18.034;2024-02-16T01:58:28;414.83;;;32.55;;
18820;SDS011;9539;59.332;18.034;2024-02-16T02:03:21;172.73;;;24.67;;
18820;SDS011;9539;59.332;18.034;2024-02-16T02:05:43;180.15;;;22.20;;
18820;SDS011;9539;59.332;18.034;2024-02-16T02:08:09;148.35;;;26.85;;
18820;SDS011;9539;59.332;18.034;2024-02-16T02:10:30;192.32;;;21.73;;
18820;SDS011;9539;59.332;18.034;2024-02-16T02:12:52;159.32;;;20.13;;
18820;SDS011;9539;59.332;18.034;2024-02-16T02:15:14;149.15;;;24.58;;
18820;SDS011;9539;59.332;18.034;2024-02-16T02:17:35;146.40;;;24.35;;
18820;SDS011;9539;59.332;18.034;2024-02-16T02:19:58;94.75;;;19.85;;
18820;SDS011;9539;59.332;18.034;2024-02-16T02:22:22;150.73;;;24.30;;
18820;SDS011;9539;59.332;18.034;2024-02-16T02:24:43;112.93;;;17.70;;
18820;SDS011;9539;59.332;18.034;2024-02-16T02:27:05;98.30;;;21.50;;
18820;SDS011;9539;59.332;18.034;2024-02-16T02:29:27;114.38;;;22.10;;
18820;SDS011;9539;59.332;18.034;2024-02-16T02:31:50;114.60;;;25.55;;
18820;SDS011;9539;59.332;18.034;2024-02-16T02:34:11;90.55;;;21.35;;
18820;SDS011;9539;59.332;18.034;2024-02-16T02:36:34;119.88;;;24.38;;
18820;SDS011;9539;59.332;18.034;2024-02-16T02:38:57;91.50;;;24.77;;
18820;SDS011;9539;59.332;18.034;2024-02-16T02:41:20;52.05;;;14.52;;
18820;SDS011;9539;59.332;18.034;2024-02-16T02:43:42;73.65;;;19.77;;
18820;SDS011;9539;59.332;18.034;2024-02-16T02:46:04;80.13;;;22.73;;
18820;SDS011;9539;59.332;18.034;2024-02-16T02:48:25;78.60;;;23.55;;
18820;SDS011;9539;59.332;18.034;2024-02-16T02:50:47;84.68;;;24.38;;
18820;SDS011;9539;59.332;18.034;2024-02-16T02:53:09;64.97;;;21.48;;
18820;SDS011;9539;59.332;18.034;2024-02-16T02:55:32;74.70;;;22.42;;
18820;SDS011;9539;59.332;18.034;2024-02-16T02:57:54;69.95;;;21.17;;
18820;SDS011;9539;59.332;18.034;2024-02-16T03:00:15;60.17;;;22.25;;
18820;SDS011;9539;59.332;18.034;2024-02-16T03:02:37;67.10;;;21.33;;
18820;SDS011;9539;59.332;18.034;2024-02-16T03:04:59;63.45;;;21.65;;
18820;SDS011;9539;59.332;18.034;2024-02-16T03:07:21;58.13;;;21.98;;
18820;SDS011;9539;59.332;18.034;2024-02-16T03:09:43;64.10;;;20.90;;
18820;SDS011;9539;59.332;18.034;2024-02-16T03:12:08;58.05;;;21.50;;
18820;SDS011;9539;59.332;18.034;2024-02-16T03:14:29;59.70;;;21.38;;
18820;SDS011;9539;59.332;18.034;2024-02-16T03:16:51;61.55;;;22.35;;
18820;SDS011;9539;59.332;18.034;2024-02-16T03:19:13;64.80;;;23.15;;
18820;SDS011;9539;59.332;18.034;2024-02-16T03:21:34;67.20;;;21.45;;
18820;SDS011;9539;59.332;18.034;2024-02-16T03:23:56;46.22;;;16.40;;
18820;SDS011;9539;59.332;18.034;2024-02-16T03:26:18;53.00;;;19.52;;
18820;SDS011;9539;59.332;18.034;2024-02-16T03:28:42;55.90;;;19.48;;
18820;SDS011;9539;59.332;18.034;2024-02-16T03:31:04;58.03;;;19.15;;
18820;SDS011;9539;59.332;18.034;2024-02-16T03:33:28;60.80;;;21.58;;
18820;SDS011;9539;59.332;18.034;2024-02-16T03:35:49;47.65;;;18.52;;
18820;SDS011;9539;59.332;18.034;2024-02-16T03:38:11;57.10;;;22.15;;
18820;SDS011;9539;59.332;18.034;2024-02-16T03:40:33;31.02;;;11.68;;
18820;SDS011;9539;59.332;18.034;2024-02-16T03:42:55;60.13;;;23.02;;
18820;SDS011;9539;59.332;18.034;2024-02-16T03:45:18;53.28;;;20.23;;
18820;SDS011;9539;59.332;18.034;2024-02-16T03:47:40;50.80;;;19.30;;
18820;SDS011;9539;59.332;18.034;2024-02-16T03:50:02;59.88;;;21.80;;
18820;SDS011;9539;59.332;18.034;2024-02-16T03:52:24;46.55;;;17.80;;
18820;SDS011;9539;59.332;18.034;2024-02-16T03:54:45;50.35;;;18.27;;
18820;SDS011;9539;59.332;18.034;2024-02-16T03:57:09;34.17;;;11.77;;
18820;SDS011;9539;59.332;18.034;2024-02-16T03:59:32;52.72;;;20.80;;
18820;SDS011;9539;59.332;18.034;2024-02-16T04:01:55;48.50;;;20.77;;
18820;SDS011;9539;59.332;18.034;2024-02-16T04:04:17;38.72;;;17.80;;
18820;SDS011;9539;59.332;18.034;2024-02-16T04:06:39;44.85;;;17.90;;
18820;SDS011;9539;59.332;18.034;2024-02-16T04:09:00;44.78;;;17.90;;
18820;SDS011;9539;59.332;18.034;2024-02-16T04:11:22;45.20;;;17.80;;
18820;SDS011;9539;59.332;18.034;2024-02-16T04:13:44;45.70;;;20.10;;
18820;SDS011;9539;59.332;18.034;2024-02-16T04:16:06;39.90;;;18.25;;
18820;SDS011;9539;59.332;18.034;2024-02-16T04:18:29;42.95;;;15.85;;
18820;SDS011;9539;59.332;18.034;2024-02-16T04:20:51;35.20;;;15.43;;
18820;SDS011;9539;59.332;18.034;2024-02-16T04:23:12;31.83;;;16.05;;
18820;SDS011;9539;59.332;18.034;2024-02-16T04:25:34;32.90;;;14.68;;
18820;SDS011;9539;59.332;18.034;2024-02-16T04:27:55;25.77;;;11.52;;
18820;SDS011;9539;59.332;18.034;2024-02-16T04:30:17;34.40;;;14.60;;
18820;SDS011;9539;59.332;18.034;2024-02-16T04:32:39;33.90;;;15.00;;
18820;SDS011;9539;59.332;18.034;2024-02-16T04:35:03;31.02;;;14.38;;
18820;SDS011;9539;59.332;18.034;2024-02-16T04:37:25;32.28;;;13.20;;
18820;SDS011;9539;59.332;18.034;2024-02-16T04:39:46;30.25;;;14.68;;
18820;SDS011;9539;59.332;18.034;2024-02-16T04:42:08;29.73;;;14.27;;
18820;SDS011;9539;59.332;18.034;2024-02-16T04:44:30;26.77;;;11.95;;
18820;SDS011;9539;59.332;18.034;2024-02-16T04:46:52;17.48;;;7.40;;
18820;SDS011;9539;59.332;18.034;2024-02-16T04:49:13;29.08;;;11.55;;
18820;SDS011;9539;59.332;18.034;2024-02-16T04:51:37;25.35;;;11.48;;
18820;SDS011;9539;59.332;18.034;2024-02-16T04:53:59;26.13;;;12.63;;
18820;SDS011;9539;59.332;18.034;2024-02-16T04:56:21;20.98;;;11.05;;
18820;SDS011;9539;59.332;18.034;2024-02-16T04:58:43;21.60;;;11.10;;
18820;SDS011;9539;59.332;18.034;2024-02-16T05:01:05;22.23;;;10.45;;
18820;SDS011;9539;59.332;18.034;2024-02-16T05:03:27;20.67;;;10.93;;
18820;SDS011;9539;59.332;18.034;2024-02-16T05:05:48;14.70;;;8.00;;
18820;SDS011;9539;59.332;18.034;2024-02-16T05:08:11;15.07;;;9.73;;
18820;SDS011;9539;59.332;18.034;2024-02-16T05:10:33;19.73;;;10.57;;
18820;SDS011;9539;59.332;18.034;2024-02-16T05:12:55;16.23;;;7.95;;
18820;SDS011;9539;59.332;18.034;2024-02-16T05:15:18;18.48;;;10.05;;
18820;SDS011;9539;59.332;18.034;2024-02-16T05:17:40;16.02;;;10.30;;
18820;SDS011;9539;59.332;18.034;2024-02-16T05:20:01;14.52;;;9.52;;
18820;SDS011;9539;59.332;18.034;2024-02-16T05:22:23;16.23;;;8.30;;
18820;SDS011;9539;59.332;18.034;2024-02-16T05:24:46;16.42;;;9.30;;
18820;SDS011;9539;59.332;18.034;2024-02-16T05:27:08;12.63;;;8.75;;
18820;SDS011;9539;59.332;18.034;2024-02-16T05:29:30;14.18;;;9.30;;
18820;SDS011;9539;59.332;18.034;2024-02-16T05:31:52;15.07;;;9.38;;
18820;SDS011;9539;59.332;18.034;2024-02-16T05:34:14;9.30;;;6.75;;
18820;SDS011;9539;59.332;18.034;2024-02-16T05:36:36;14.02;;;8.43;;
18820;SDS011;9539;59.332;18.034;2024-02-16T05:38:57;12.23;;;8.23;;
18820;SDS011;9539;59.332;18.034;2024-02-16T05:41:31;13.50;;;7.60;;
18820;SDS011;9539;59.332;18.034;2024-02-16T05:43:53;7.30;;;5.45;;
18820;SDS011;9539;59.332;18.034;2024-02-16T05:46:15;9.05;;;6.13;;
18820;SDS011;9539;59.332;18.034;2024-02-16T05:48:37;9.30;;;5.95;;
18820;SDS011;9539;59.332;18.034;2024-02-16T05:51:00;8.15;;;4.10;;
18820;SDS011;9539;59.332;18.034;2024-02-16T05:53:22;9.55;;;6.47;;
18820;SDS011;9539;59.332;18.034;2024-02-16T05:55:44;8.27;;;5.93;;
18820;SDS011;9539;59.332;18.034;2024-02-16T05:58:09;6.13;;;3.85;;
18820;SDS011;9539;59.332;18.034;2024-02-16T06:00:33;8.43;;;5.80;;
18820;SDS011;9539;59.332;18.034;2024-02-16T06:02:57;7.72;;;5.45;;
18820;SDS011;9539;59.332;18.034;2024-02-16T06:05:19;8.45;;;5.18;;
18820;SDS011;9539;59.332;18.034;2024-02-16T06:07:41;10.50;;;6.88;;
18820;SDS011;9539;59.332;18.034;2024-02-16T06:10:03;9.30;;;5.97;;
18820;SDS011;9539;59.332;18.034;2024-02-16T06:12:27;8.43;;;5.78;;
18820;SDS011;9539;59.332;18.034;2024-02-16T06:14:50;8.70;;;5.47;;
18820;SDS011;9539;59.332;18.034;2024-02-16T06:17:13;6.70;;;5.40;;
18820;SDS011;9539;59.332;18.034;2024-02-16T06:19:35;8.40;;;5.78;;
18820;SDS011;9539;59.332;18.034;2024-02-16T06:21:57;6.88;;;4.50;;
18820;SDS011;9539;59.332;18.034;2024-02-16T06:24:19;7.90;;;6.07;;
18820;SDS011;9539;59.332;18.034;2024-02-16T06:26:40;6.55;;;5.57;;
18820;SDS011;9539;59.332;18.034;2024-02-16T06:29:03;4.85;;;3.85;;
18820;SDS011;9539;59.332;18.034;2024-02-16T06:31:26;6.90;;;5.40;;
18820;SDS011;9539;59.332;18.034;2024-02-16T06:33:48;10.43;;;5.53;;
18820;SDS011;9539;59.332;18.034;2024-02-16T06:36:10;6.63;;;4.68;;
18820;SDS011;9539;59.332;18.034;2024-02-16T06:38:31;7.18;;;5.38;;
18820;SDS011;9539;59.332;18.034;2024-02-16T06:40:53;4.40;;;3.67;;
18820;SDS011;9539;59.332;18.034;2024-02-16T06:43:14;6.70;;;4.53;;
18820;SDS011;9539;59.332;18.034;2024-02-16T06:45:36;6.40;;;4.93;;
18820;SDS011;9539;59.332;18.034;2024-02-16T06:47:59;5.35;;;4.38;;
18820;SDS011;9539;59.332;18.034;2024-02-16T06:50:21;4.75;;;4.22;;
18820;SDS011;9539;59.332;18.034;2024-02-16T06:52:43;5.30;;;4.18;;
18820;SDS011;9539;59.332;18.034;2024-02-16T06:55:05;4.50;;;3.70;;
18820;SDS011;9539;59.332;18.034;2024-02-16T06:57:28;4.28;;;3.70;;
18820;SDS011;9539;59.332;18.034;2024-02-16T06:59:51;5.05;;;4.07;;
18820;SDS011;9539;59.332;18.034;2024-02-16T07:02:14;4.00;;;3.38;;
18820;SDS011;9539;59.332;18.034;2024-02-16T07:04:40;5.50;;;4.40;;
18820;SDS011;9539;59.332;18.034;2024-02-16T07:07:02;4.88;;;3.13;;
18820;SDS011;9539;59.332;18.034;2024-02-16T07:09:26;4.25;;;3.53;;
18820;SDS011;9539;59.332;18.034;2024-02-16T07:11:48;3.67;;;3.05;;
18820;SDS011;9539;59.332;18.034;2024-02-16T07:14:10;4.18;;;3.53;;
18820;SDS011;9539;59.332;18.034;2024-02-16T07:16:33;4.72;;;3.20;;
18820;SDS011;9539;59.332;18.034;2024-02-16T07:18:55;3.38;;;2.97;;
18820;SDS011;9539;59.332;18.034;2024-02-16T07:21:19;2.22;;;2.08;;
18820;SDS011;9539;59.332;18.034;2024-02-16T07:23:42;1.95;;;1.77;;
18820;SDS011;9539;59.332;18.034;2024-02-16T07:26:04;3.80;;;2.80;;
18820;SDS011;9539;59.332;18.034;2024-02-16T07:28:27;2.72;;;2.42;;
18820;SDS011;9539;59.332;18.034;2024-02-16T07:30:49;3.05;;;2.08;;
18820;SDS011;9539;59.332;18.034;2024-02-16T07:33:11;4.78;;;2.03;;
18820;SDS011;9539;59.332;18.034;2024-02-16T07:35:32;3.22;;;2.42;;
18820;SDS011;9539;59.332;18.034;2024-02-16T07:37:57;2.10;;;1.90;;
18820;SDS011;9539;59.332;18.034;2024-02-16T07:40:19;1.65;;;1.55;;
18820;SDS011;9539;59.332;18.034;2024-02-16T07:42:41;2.30;;;1.88;;
18820;SDS011;9539;59.332;18.034;2024-02-16T07:45:04;3.25;;;2.20;;
18820;SDS011;9539;59.332;18.034;2024-02-16T07:47:26;2.58;;;2.25;;
18820;SDS011;9539;59.332;18.034;2024-02-16T07:49:48;4.03;;;2.75;;
18820;SDS011;9539;59.332;18.034;2024-02-16T07:52:09;3.03;;;2.20;;
18820;SDS011;9539;59.332;18.034;2024-02-16T07:54:32;2.15;;;2.00;;
18820;SDS011;9539;59.332;18.034;2024-02-16T07:56:54;2.17;;;1.98;;
18820;SDS011;9539;59.332;18.034;2024-02-16T07:59:16;4.18;;;1.85;;
18820;SDS011;9539;59.332;18.034;2024-02-16T08:01:39;1.98;;;1.70;;
18820;SDS011;9539;59.332;18.034;2024-02-16T08:04:01;2.88;;;2.58;;
18820;SDS011;9539;59.332;18.034;2024-02-16T08:06:24;3.53;;;2.92;;
18820;SDS011;9539;59.332;18.034;2024-02-16T08:08:48;1.35;;;1.20;;
18820;SDS011;9539;59.332;18.034;2024-02-16T08:11:11;2.33;;;2.00;;
18820;SDS011;9539;59.332;18.034;2024-02-16T08:13:33;3.08;;;2.60;;
18820;SDS011;9539;59.332;18.034;2024-02-16T08:15:55;2.95;;;2.60;;
18820;SDS011;9539;59.332;18.034;2024-02-16T08:18:16;3.38;;;2.10;;
18820;SDS011;9539;59.332;18.034;2024-02-16T08:20:38;3.00;;;2.70;;
18820;SDS011;9539;59.332;18.034;2024-02-16T08:23:00;3.63;;;2.80;;
18820;SDS011;9539;59.332;18.034;2024-02-16T08:25:22;2.63;;;2.42;;
18820;SDS011;9539;59.332;18.034;2024-02-16T08:27:45;2.72;;;2.50;;
18820;SDS011;9539;59.332;18.034;2024-02-16T08:30:07;3.95;;;2.60;;
18820;SDS011;9539;59.332;18.034;2024-02-16T08:32:29;2.47;;;2.20;;
18820;SDS011;9539;59.332;18.034;2024-02-16T08:34:52;7.75;;;3.25;;
18820;SDS011;9539;59.332;18.034;2024-02-16T08:37:13;2.90;;;2.65;;
18820;SDS011;9539;59.332;18.034;2024-02-16T08:39:37;2.90;;;2.40;;
18820;SDS011;9539;59.332;18.034;2024-02-16T08:41:59;3.40;;;2.60;;
18820;SDS011;9539;59.332;18.034;2024-02-16T08:44:22;2.20;;;2.00;;
18820;SDS011;9539;59.332;18.034;2024-02-16T08:46:43;3.10;;;2.40;;
18820;SDS011;9539;59.332;18.034;2024-02-16T08:49:06;2.75;;;2.40;;
18820;SDS011;9539;59.332;18.034;2024-02-16T08:51:27;3.40;;;2.40;;
18820;SDS011;9539;59.332;18.034;2024-02-16T08:53:49;2.53;;;2.22;;
18820;SDS011;9539;59.332;18.034;2024-02-16T08:56:11;3.83;;;2.25;;
18820;SDS011;9539;59.332;18.034;2024-02-16T08:58:33;3.33;;;2.00;;
18820;SDS011;9539;59.332;18.034;2024-02-16T09:00:56;2.45;;;1.90;;
18820;SDS011;9539;59.332;18.034;2024-02-16T09:03:17;2.55;;;1.90;;
18820;SDS011;9539;59.332;18.034;2024-02-16T09:05:39;2.58;;;2.10;;
18820;SDS011;9539;59.332;18.034;2024-02-16T09:08:01;2.78;;;2.10;;
18820;SDS011;9539;59.332;18.034;2024-02-16T09:10:23;2.78;;;2.25;;
18820;SDS011;9539;59.332;18.034;2024-02-16T09:12:44;2.20;;;2.00;;
18820;SDS011;9539;59.332;18.034;2024-02-16T09:15:06;2.10;;;1.90;;
18820;SDS011;9539;59.332;18.034;2024-02-16T09:17:30;2.30;;;1.90;;
18820;SDS011;9539;59.332;18.034;2024-02-16T09:19:52;3.63;;;2.15;;
18820;SDS011;9539;59.332;18.034;2024-02-16T09:22:13;2.88;;;2.10;;
18820;SDS011;9539;59.332;18.034;2024-02-16T09:24:35;2.38;;;2.00;;
18820;SDS011;9539;59.332;18.034;2024-02-16T09:26:57;3.63;;;1.70;;
18820;SDS011;9539;59.332;18.034;2024-02-16T09:29:21;2.20;;;1.63;;
18820;SDS011;9539;59.332;18.034;2024-02-16T09:31:43;2.25;;;2.05;;
18820;SDS011;9539;59.332;18.034;2024-02-16T09:34:06;3.63;;;1.83;;
18820;SDS011;9539;59.332;18.034;2024-02-16T09:36:27;4.57;;;2.20;;
18820;SDS011;9539;59.332;18.034;2024-02-16T09:38:50;3.17;;;1.92;;
18820;SDS011;9539;59.332;18.034;2024-02-16T09:41:13;4.05;;;2.00;;
18820;SDS011;9539;59.332;18.034;2024-02-16T09:43:36;2.58;;;2.00;;
18820;SDS011;9539;59.332;18.034;2024-02-16T09:45:59;3.42;;;2.15;;
18820;SDS011;9539;59.332;18.034;2024-02-16T09:48:21;3.20;;;2.08;;
18820;SDS011;9539;59.332;18.034;2024-02-16T09:50:46;2.65;;;2.20;;
18820;SDS011;9539;59.332;18.034;2024-02-16T09:53:08;2.30;;;2.10;;
18820;SDS011;9539;59.332;18.034;2024-02-16T09:55:30;3.95;;;2.35;;
18820;SDS011;9539;59.332;18.034;2024-02-16T09:57:58;3.35;;;2.30;;
18820;SDS011;9539;59.332;18.034;2024-02-16T10:00:20;4.10;;;2.35;;
18820;SDS011;9539;59.332;18.034;2024-02-16T10:02:42;3.03;;;2.50;;
18820;SDS011;9539;59.332;18.034;2024-02-16T10:05:09;2.72;;;2.20;;
18820;SDS011;9539;59.332;18.034;2024-02-16T10:07:32;2.97;;;2.53;;
18820;SDS011;9539;59.332;18.034;2024-02-16T10:09:54;2.10;;;1.90;;
18820;SDS011;9539;59.332;18.034;2024-02-16T10:12:17;2.60;;;1.98;;
18820;SDS011;9539;59.332;18.034;2024-02-16T10:14:39;3.33;;;2.40;;
18820;SDS011;9539;59.332;18.034;2024-02-16T10:17:02;2.10;;;1.90;;
18820;SDS011;9539;59.332;18.034;2024-02-16T10:19:24;2.28;;;2.08;;
18820;SDS011;9539;59.332;18.034;2024-02-16T10:21:46;2.40;;;2.20;;
18820;SDS011;9539;59.332;18.034;2024-02-16T10:24:09;2.97;;;2.03;;
18820;SDS011;9539;59.332;18.034;2024-02-16T10:26:31;1.88;;;1.73;;
18820;SDS011;9539;59.332;18.034;2024-02-16T10:28:53;2.08;;;1.88;;
18820;SDS011;9539;59.332;18.034;2024-02-16T10:31:16;1.92;;;1.80;;
18820;SDS011;9539;59.332;18.034;2024-02-16T10:33:38;3.53;;;2.30;;
18820;SDS011;9539;59.332;18.034;2024-02-16T10:36:04;3.40;;;2.17;;
18820;SDS011;9539;59.332;18.034;2024-02-16T10:38:25;2.60;;;2.40;;
18820;SDS011;9539;59.332;18.034;2024-02-16T10:40:50;2.00;;;1.80;;
18820;SDS011;9539;59.332;18.034;2024-02-16T10:43:12;2.30;;;2.10;;
18820;SDS011;9539;59.332;18.034;2024-02-16T10:45:36;4.03;;;2.00;;
18820;SDS011;9539;59.332;18.034;2024-02-16T10:47:58;5.28;;;2.22;;
18820;SDS011;9539;59.332;18.034;2024-02-16T10:50:19;2.50;;;1.98;;
18820;SDS011;9539;59.332;18.034;2024-02-16T10:52:41;3.78;;;2.42;;
18820;SDS011;9539;59.332;18.034;2024-02-16T10:55:05;2.17;;;1.98;;
18820;SDS011;9539;59.332;18.034;2024-02-16T10:57:28;3.42;;;2.45;;
18820;SDS011;9539;59.332;18.034;2024-02-16T10:59:52;6.60;;;2.30;;
18820;SDS011;9539;59.332;18.034;2024-02-16T11:02:16;2.53;;;2.33;;
18820;SDS011;9539;59.332;18.034;2024-02-16T11:04:37;2.17;;;1.95;;
18820;SDS011;9539;59.332;18.034;2024-02-16T11:06:59;4.93;;;2.25;;
18820;SDS011;9539;59.332;18.034;2024-02-16T11:09:27;2.70;;;2.28;;
18820;SDS011;9539;59.332;18.034;2024-02-16T11:11:51;2.60;;;2.00;;
18820;SDS011;9539;59.332;18.034;2024-02-16T11:14:16;2.40;;;2.20;;
18820;SDS011;9539;59.332;18.034;2024-02-16T11:16:43;2.53;;;2.10;;
18820;SDS011;9539;59.332;18.034;2024-02-16T11:19:05;3.58;;;2.53;;
18820;SDS011;9539;59.332;18.034;2024-02-16T11:21:28;2.45;;;2.20;;
18820;SDS011;9539;59.332;18.034;2024-02-16T11:23:50;3.60;;;2.80;;
18820;SDS011;9539;59.332;18.034;2024-02-16T11:26:12;3.55;;;2.58;;
18820;SDS011;9539;59.332;18.034;2024-02-16T11:28:35;3.13;;;2.75;;
18820;SDS011;9539;59.332;18.034;2024-02-16T11:30:59;3.10;;;2.78;;
18820;SDS011;9539;59.332;18.034;2024-02-16T11:33:20;4.03;;;3.17;;
18820;SDS011;9539;59.332;18.034;2024-02-16T11:35:46;4.13;;;3.60;;
18820;SDS011;9539;59.332;18.034;2024-02-16T11:38:13;5.72;;;3.58;;
18820;SDS011;9539;59.332;18.034;2024-02-16T11:40:35;3.72;;;3.30;;
18820;SDS011;9539;59.332;18.034;2024-02-16T11:42:57;6.53;;;3.45;;
18820;SDS011;9539;59.332;18.034;2024-02-16T11:45:19;7.45;;;3.50;;
18820;SDS011;9539;59.332;18.034;2024-02-16T11:47:43;5.65;;;3.50;;
18820;SDS011;9539;59.332;18.034;2024-02-16T11:50:05;4.55;;;3.58;;
18820;SDS011;9539;59.332;18.034;2024-02-16T11:52:29;5.03;;;3.50;;
18820;SDS011;9539;59.332;18.034;2024-02-16T11:54:50;5.10;;;3.67;;
18820;SDS011;9539;59.332;18.034;2024-02-16T11:57:12;3.08;;;2.58;;
18820;SDS011;9539;59.332;18.034;2024-02-16T11:59:34;3.92;;;2.97;;
18820;SDS011;9539;59.332;18.034;2024-02-16T12:01:58;4.82;;;3.38;;
18820;SDS011;9539;59.332;18.034;2024-02-16T12:04:22;4.22;;;3.10;;
18820;SDS011;9539;59.332;18.034;2024-02-16T12:06:44;4.30;;;2.85;;
18820;SDS011;9539;59.332;18.034;2024-02-16T12:09:07;4.07;;;3.05;;
18820;SDS011;9539;59.332;18.034;2024-02-16T12:11:30;7.00;;;3.22;;
18820;SDS011;9539;59.332;18.034;2024-02-16T12:13:52;3.35;;;2.88;;
18820;SDS011;9539;59.332;18.034;2024-02-16T12:16:14;3.88;;;2.65;;
18820;SDS011;9539;59.332;18.034;2024-02-16T12:18:36;3.75;;;2.80;;
18820;SDS011;9539;59.332;18.034;2024-02-16T12:21:03;4.97;;;2.85;;
18820;SDS011;9539;59.332;18.034;2024-02-16T12:23:25;2.63;;;2.33;;
18820;SDS011;9539;59.332;18.034;2024-02-16T12:25:47;3.42;;;2.70;;
18820;SDS011;9539;59.332;18.034;2024-02-16T12:28:09;3.08;;;2.55;;
18820;SDS011;9539;59.332;18.034;2024-02-16T12:30:30;2.50;;;2.30;;
18820;SDS011;9539;59.332;18.034;2024-02-16T12:32:52;2.88;;;2.50;;
18820;SDS011;9539;59.332;18.034;2024-02-16T12:35:14;3.53;;;2.38;;
18820;SDS011;9539;59.332;18.034;2024-02-16T12:37:37;4.00;;;2.40;;
18820;SDS011;9539;59.332;18.034;2024-02-16T12:39:59;2.85;;;2.30;;
18820;SDS011;9539;59.332;18.034;2024-02-16T12:42:21;2.25;;;1.92;;
18820;SDS011;9539;59.332;18.034;2024-02-16T12:44:43;2.35;;;2.08;;
18820;SDS011;9539;59.332;18.034;2024-02-16T12:47:04;2.40;;;2.20;;
18820;SDS011;9539;59.332;18.034;2024-02-16T12:49:26;2.10;;;1.90;;
18820;SDS011;9539;59.332;18.034;2024-02-16T12:51:48;3.70;;;2.10;;
18820;SDS011;9539;59.332;18.034;2024-02-16T12:54:12;5.75;;;2.20;;
18820;SDS011;9539;59.332;18.034;2024-02-16T12:56:34;3.05;;;2.10;;
18820;SDS011;9539;59.332;18.034;2024-02-16T12:58:56;2.47;;;2.03;;
18820;SDS011;9539;59.332;18.034;2024-02-16T13:01:20;3.53;;;2.10;;
18820;SDS011;9539;59.332;18.034;2024-02-16T13:03:42;2.47;;;2.00;;
18820;SDS011;9539;59.332;18.034;2024-02-16T13:06:03;1.90;;;1.70;;
18820;SDS011;9539;59.332;18.034;2024-02-16T13:08:25;2.67;;;2.15;;
18820;SDS011;9539;59.332;18.034;2024-02-16T13:10:48;2.97;;;2.03;;
18820;SDS011;9539;59.332;18.034;2024-02-16T13:13:10;2.55;;;1.90;;
18820;SDS011;9539;59.332;18.034;2024-02-16T13:15:31;1.63;;;1.52;;
18820;SDS011;9539;59.332;18.034;2024-02-16T13:17:53;1.50;;;1.40;;
18820;SDS011;9539;59.332;18.034;2024-02-16T13:20:15;2.83;;;1.70;;
18820;SDS011;9539;59.332;18.034;2024-02-16T13:22:37;3.38;;;1.80;;
18820;SDS011;9539;59.332;18.034;2024-02-16T13:24:59;1.70;;;1.60;;
18820;SDS011;9539;59.332;18.034;2024-02-16T13:27:22;2.28;;;1.90;;
18820;SDS011;9539;59.332;18.034;2024-02-16T13:29:43;3.30;;;1.63;;
18820;SDS011;9539;59.332;18.034;2024-02-16T13:32:05;2.00;;;1.50;;
18820;SDS011;9539;59.332;18.034;2024-02-16T13:34:27;3.72;;;1.70;;
18820;SDS011;9539;59.332;18.034;2024-02-16T13:36:48;1.83;;;1.70;;
18820;SDS011;9539;59.332;18.034;2024-02-16T13:39:10;3.22;;;1.98;;
18820;SDS011;9539;59.332;18.034;2024-02-16T13:41:34;3.35;;;1.70;;
18820;SDS011;9539;59.332;18.034;2024-02-16T13:43:57;3.10;;;1.83;;
18820;SDS011;9539;59.332;18.034;2024-02-16T13:46:19;3.75;;;2.33;;
18820;SDS011;9539;59.332;18.034;2024-02-16T13:48:41;3.47;;;2.22;;
18820;SDS011;9539;59.332;18.034;2024-02-16T13:51:03;3.40;;;2.92;;
18820;SDS011;9539;59.332;18.034;2024-02-16T13:53:27;4.40;;;2.80;;
18820;SDS011;9539;59.332;18.034;2024-02-16T13:55:48;2.00;;;1.80;;
18820;SDS011;9539;59.332;18.034;2024-02-16T13:58:10;6.20;;;4.28;;
18820;SDS011;9539;59.332;18.034;2024-02-16T14:00:33;2.88;;;2.50;;
18820;SDS011;9539;59.332;18.034;2024-02-16T14:02:55;6.68;;;2.20;;
18820;SDS011;9539;59.332;18.034;2024-02-16T14:05:17;3.03;;;2.38;;
18820;SDS011;9539;59.332;18.034;2024-02-16T14:07:39;5.68;;;3.80;;